PWSweather.com
Personal Weather Stations
Station Observations
GRD01
Warsaw, LesznoPL 05-084

WarsawLesznoPL 05-084

Lat: 52.257404, Lon: 20.564847

Elevation: 298

Station Type: WH3080

http://pogoda.kampinos.waw.pl

High Low Average
Temperature 84.2°F29.0°C 59.4°F15.2°C 71.7°F22.1°C
Dew Point 60.4°F15.8°C 48.1°F8.9°C 53.9°F12.2°C
Winds 14.5 mph 23.3 kmh Calm Calm 5.0 mph SSE8.0 kmh SSE
Wind Gusts 22.1 mph35.6 kmh 3.1 mph5.0 kmh 11.0 mph17.7 kmh
Humidity 89% 31% 57%
Pressure 29.53 in1000.0 mb 29.33 in993.2 mb -
Precipitation 0.04 in1.0 mm - -
Hour Temp Dew Point Humidity Winds Wind Gusts Pressure Precip Precip Rate Daily Precip Total
12:00 AM 61.3°F16.3°C 51.9°F11.1°C 71% 3.1 mph NNE5.0 kmh NNE 5.4 mph8.7 kmh 29.51 in999.3 mb 0.00 in0.0 mm 0.00 in0.0 mm 0.00 in0.0 mm
12:15 AM 61.0°F16.1°C 51.9°F11.1°C 72% 1.6 mph NE2.6 kmh NE 4.5 mph7.2 kmh 29.51 in999.3 mb 0.00 in0.0 mm 0.00 in0.0 mm 0.00 in0.0 mm
12:30 AM 61.0°F16.1°C 52.3°F11.3°C 73% 3.1 mph E5.0 kmh E 8.3 mph13.4 kmh 29.51 in999.3 mb 0.00 in0.0 mm 0.00 in0.0 mm 0.00 in0.0 mm
12:45 AM 61.5°F16.4°C 52.8°F11.6°C 73% 3.8 mph NE6.1 kmh NE 10.7 mph17.2 kmh 29.51 in999.3 mb 0.00 in0.0 mm 0.00 in0.0 mm 0.00 in0.0 mm
01:00 AM 62.1°F16.7°C 52.9°F11.6°C 72% 3.8 mph ENE6.1 kmh ENE 10.7 mph17.2 kmh 29.50 in999.0 mb 0.00 in0.0 mm 0.00 in0.0 mm 0.00 in0.0 mm
01:15 AM 62.4°F16.9°C 53.3°F11.8°C 72% 3.8 mph E6.1 kmh E 8.3 mph13.4 kmh 29.49 in998.6 mb 0.00 in0.0 mm 0.00 in0.0 mm 0.00 in0.0 mm
01:30 AM 62.6°F17.0°C 53.8°F12.1°C 73% 2.2 mph ENE3.5 kmh ENE 6.0 mph9.7 kmh 29.50 in999.0 mb 0.00 in0.0 mm 0.00 in0.0 mm 0.00 in0.0 mm
01:45 AM 62.6°F17.0°C 54.2°F12.3°C 74% 0.7 mph E1.1 kmh E 3.8 mph6.1 kmh 29.52 in999.7 mb 0.00 in0.0 mm 0.00 in0.0 mm 0.00 in0.0 mm
02:00 AM 62.4°F16.9°C 54.4°F12.4°C 75% 3.8 mph ENE6.1 kmh ENE 5.4 mph8.7 kmh 29.50 in999.0 mb 0.01 in0.3 mm 0.01 in0.3 mm 0.01 in0.3 mm
02:15 AM 61.3°F16.3°C 55.1°F12.8°C 80% 3.1 mph NE5.0 kmh NE 4.5 mph7.2 kmh 29.52 in999.7 mb 0.01 in0.3 mm 0.00 in0.0 mm 0.01 in0.3 mm
02:30 AM 60.6°F15.9°C 55.1°F12.8°C 82% 3.1 mph ESE5.0 kmh ESE 6.0 mph9.7 kmh 29.50 in999.0 mb 0.04 in1.0 mm 0.12 in3.0 mm 0.04 in1.0 mm
02:45 AM 60.1°F15.6°C 55.2°F12.9°C 84% 1.6 mph SSE2.6 kmh SSE 4.5 mph7.2 kmh 29.52 in999.7 mb 0.04 in1.0 mm 0.00 in0.0 mm 0.04 in1.0 mm
03:00 AM 59.7°F15.4°C 55.2°F12.9°C 85% 4.5 mph NW7.2 kmh NW 9.8 mph15.8 kmh 29.53 in1000.0 mb 0.02 in0.5 mm 0.00 in0.0 mm 0.04 in1.0 mm
03:15 AM 59.4°F15.2°C 55.2°F12.9°C 86% 2.2 mph NE3.5 kmh NE 6.0 mph9.7 kmh 29.50 in999.0 mb 0.02 in0.5 mm 0.00 in0.0 mm 0.04 in1.0 mm
03:30 AM 59.4°F15.2°C 55.5°F13.1°C 87% 2.2 mph NE3.5 kmh NE 9.8 mph15.8 kmh 29.50 in999.0 mb 0.00 in0.0 mm 0.00 in0.0 mm 0.04 in1.0 mm
03:45 AM 59.4°F15.2°C 55.8°F13.2°C 88% Calm Calm 6.0 mph9.7 kmh 29.49 in998.6 mb 0.00 in0.0 mm 0.00 in0.0 mm 0.04 in1.0 mm
04:00 AM 59.4°F15.2°C 56.1°F13.4°C 89% 2.2 mph NE3.5 kmh NE 5.4 mph8.7 kmh 29.50 in999.0 mb 0.00 in0.0 mm 0.00 in0.0 mm 0.04 in1.0 mm
04:15 AM 59.9°F15.5°C 56.3°F13.5°C 88% 2.2 mph ENE3.5 kmh ENE 5.4 mph8.7 kmh 29.49 in998.6 mb 0.00 in0.0 mm 0.00 in0.0 mm 0.04 in1.0 mm
04:30 AM 60.1°F15.6°C 56.2°F13.4°C 87% 2.2 mph E3.5 kmh E 6.0 mph9.7 kmh 29.49 in998.6 mb 0.00 in0.0 mm 0.00 in0.0 mm 0.04 in1.0 mm
04:45 AM 60.4°F15.8°C 56.2°F13.4°C 86% 1.6 mph E2.6 kmh E 7.6 mph12.2 kmh 29.49 in998.6 mb 0.00 in0.0 mm 0.00 in0.0 mm 0.04 in1.0 mm
05:00 AM 60.4°F15.8°C 55.9°F13.3°C 85% 2.2 mph ENE3.5 kmh ENE 6.9 mph11.1 kmh 29.49 in998.6 mb 0.00 in0.0 mm 0.00 in0.0 mm 0.04 in1.0 mm
05:15 AM 60.4°F15.8°C 55.6°F13.1°C 84% 3.8 mph ENE6.1 kmh ENE 6.0 mph9.7 kmh 29.49 in998.6 mb 0.00 in0.0 mm 0.00 in0.0 mm 0.04 in1.0 mm
05:30 AM 60.8°F16.0°C 55.6°F13.1°C 83% 3.1 mph E5.0 kmh E 7.6 mph12.2 kmh 29.50 in999.0 mb 0.00 in0.0 mm 0.00 in0.0 mm 0.04 in1.0 mm
05:45 AM 61.3°F16.3°C 56.1°F13.4°C 83% 3.8 mph ESE6.1 kmh ESE 9.8 mph15.8 kmh 29.49 in998.6 mb 0.00 in0.0 mm 0.00 in0.0 mm 0.04 in1.0 mm
06:00 AM 62.6°F17.0°C 57.0°F13.9°C 82% 8.3 mph SE13.4 kmh SE 11.4 mph18.3 kmh 29.50 in999.0 mb 0.00 in0.0 mm 0.00 in0.0 mm 0.04 in1.0 mm
06:15 AM 63.5°F17.5°C 55.8°F13.2°C 76% 6.0 mph SE9.7 kmh SE 12.1 mph19.5 kmh 29.49 in998.6 mb 0.00 in0.0 mm 0.00 in0.0 mm 0.04 in1.0 mm
06:30 AM 64.2°F17.9°C 55.8°F13.2°C 74% 3.8 mph SE6.1 kmh SE 11.4 mph18.3 kmh 29.50 in999.0 mb 0.00 in0.0 mm 0.00 in0.0 mm 0.04 in1.0 mm
06:45 AM 64.6°F18.1°C 55.7°F13.2°C 73% 6.0 mph SE9.7 kmh SE 9.2 mph14.8 kmh 29.49 in998.6 mb 0.00 in0.0 mm 0.00 in0.0 mm 0.04 in1.0 mm
07:00 AM 65.1°F18.4°C 55.5°F13.1°C 71% 7.6 mph SE12.2 kmh SE 12.1 mph19.5 kmh 29.49 in998.6 mb 0.00 in0.0 mm 0.00 in0.0 mm 0.04 in1.0 mm
07:15 AM 66.4°F19.1°C 56.3°F13.5°C 70% 1.6 mph SE2.6 kmh SE 15.2 mph24.5 kmh 29.48 in998.3 mb 0.00 in0.0 mm 0.00 in0.0 mm 0.04 in1.0 mm
07:30 AM 67.1°F19.5°C 57.0°F13.9°C 70% 7.6 mph SE12.2 kmh SE 13.6 mph21.9 kmh 29.48 in998.3 mb 0.00 in0.0 mm 0.00 in0.0 mm 0.04 in1.0 mm
07:45 AM 68.0°F20.0°C 57.4°F14.1°C 69% 6.0 mph SSE9.7 kmh SSE 13.6 mph21.9 kmh 29.47 in998.0 mb 0.00 in0.0 mm 0.00 in0.0 mm 0.04 in1.0 mm
08:00 AM 68.9°F20.5°C 58.3°F14.6°C 69% 9.2 mph SSE14.8 kmh SSE 15.2 mph24.5 kmh 29.47 in998.0 mb 0.00 in0.0 mm 0.00 in0.0 mm 0.04 in1.0 mm
08:15 AM 70.0°F21.1°C 58.9°F14.9°C 68% 7.6 mph SSE12.2 kmh SSE 14.5 mph23.3 kmh 29.46 in997.6 mb 0.00 in0.0 mm 0.00 in0.0 mm 0.04 in1.0 mm
08:30 AM 71.1°F21.7°C 59.1°F15.1°C 66% 6.9 mph SE11.1 kmh SE 15.9 mph25.6 kmh 29.46 in997.6 mb 0.00 in0.0 mm 0.00 in0.0 mm 0.04 in1.0 mm
08:45 AM 72.5°F22.5°C 58.7°F14.8°C 62% 6.9 mph SE11.1 kmh SE 13.6 mph21.9 kmh 29.46 in997.6 mb 0.00 in0.0 mm 0.00 in0.0 mm 0.04 in1.0 mm
09:00 AM 73.4°F23.0°C 59.1°F15.1°C 61% 4.5 mph ESE7.2 kmh ESE 11.4 mph18.3 kmh 29.46 in997.6 mb 0.00 in0.0 mm 0.00 in0.0 mm 0.04 in1.0 mm
09:15 AM 75.2°F24.0°C 60.4°F15.8°C 60% 10.7 mph SE17.2 kmh SE 12.1 mph19.5 kmh 29.45 in997.3 mb 0.00 in0.0 mm 0.00 in0.0 mm 0.04 in1.0 mm
09:30 AM 75.9°F24.4°C 59.6°F15.3°C 57% 4.5 mph ESE7.2 kmh ESE 13.6 mph21.9 kmh 29.45 in997.3 mb 0.00 in0.0 mm 0.00 in0.0 mm 0.04 in1.0 mm
09:45 AM 76.3°F24.6°C 58.9°F14.9°C 55% 5.4 mph SE8.7 kmh SE 14.5 mph23.3 kmh 29.45 in997.3 mb 0.00 in0.0 mm 0.00 in0.0 mm 0.04 in1.0 mm
10:00 AM 77.2°F25.1°C 59.2°F15.1°C 54% 10.7 mph SE17.2 kmh SE 15.2 mph24.5 kmh 29.44 in997.0 mb 0.00 in0.0 mm 0.00 in0.0 mm 0.04 in1.0 mm
10:15 AM 77.5°F25.3°C 59.1°F15.1°C 53% 8.3 mph SSE13.4 kmh SSE 12.1 mph19.5 kmh 29.43 in996.6 mb 0.00 in0.0 mm 0.00 in0.0 mm 0.04 in1.0 mm
10:30 AM 78.3°F25.7°C 59.2°F15.1°C 52% 8.3 mph SE13.4 kmh SE 14.5 mph23.3 kmh 29.43 in996.6 mb 0.00 in0.0 mm 0.00 in0.0 mm 0.04 in1.0 mm
10:45 AM 78.8°F26.0°C 59.7°F15.4°C 52% 6.0 mph SE9.7 kmh SE 10.7 mph17.2 kmh 29.43 in996.6 mb 0.00 in0.0 mm 0.00 in0.0 mm 0.04 in1.0 mm
11:00 AM 79.3°F26.3°C 59.6°F15.3°C 51% 8.3 mph SSE13.4 kmh SSE 14.5 mph23.3 kmh 29.41 in995.9 mb 0.00 in0.0 mm 0.00 in0.0 mm 0.04 in1.0 mm
11:15 AM 80.1°F26.7°C 59.7°F15.4°C 50% 9.8 mph SSE15.8 kmh SSE 14.5 mph23.3 kmh 29.41 in995.9 mb 0.00 in0.0 mm 0.00 in0.0 mm 0.04 in1.0 mm
11:30 AM 81.0°F27.2°C 58.8°F14.9°C 47% 8.3 mph S13.4 kmh S 11.4 mph18.3 kmh 29.40 in995.6 mb 0.00 in0.0 mm 0.00 in0.0 mm 0.04 in1.0 mm
11:45 AM 81.9°F27.7°C 55.9°F13.3°C 41% 8.3 mph SSE13.4 kmh SSE 15.9 mph25.6 kmh 29.40 in995.6 mb 0.00 in0.0 mm 0.00 in0.0 mm 0.04 in1.0 mm
12:00 PM 82.9°F28.3°C 56.1°F13.4°C 40% 6.0 mph S9.7 kmh S 16.8 mph27.0 kmh 29.39 in995.3 mb 0.00 in0.0 mm 0.00 in0.0 mm 0.04 in1.0 mm
12:15 PM 82.9°F28.3°C 56.1°F13.4°C 40% 12.1 mph SSE19.5 kmh SSE 15.9 mph25.6 kmh 29.38 in994.9 mb 0.00 in0.0 mm 0.00 in0.0 mm 0.04 in1.0 mm
12:30 PM 83.3°F28.5°C 55.8°F13.2°C 39% 9.8 mph SSW15.8 kmh SSW 15.9 mph25.6 kmh 29.38 in994.9 mb 0.00 in0.0 mm 0.00 in0.0 mm 0.04 in1.0 mm
12:45 PM 83.7°F28.7°C 52.3°F11.3°C 34% 13.0 mph SSE20.9 kmh SSE 19.0 mph30.6 kmh 29.38 in994.9 mb 0.00 in0.0 mm 0.00 in0.0 mm 0.04 in1.0 mm
01:00 PM 83.8°F28.8°C 54.0°F12.2°C 36% 3.8 mph S6.1 kmh S 18.3 mph29.5 kmh 29.38 in994.9 mb 0.00 in0.0 mm 0.00 in0.0 mm 0.04 in1.0 mm
01:15 PM 83.7°F28.7°C 56.1°F13.4°C 39% 13.0 mph S20.9 kmh S 18.3 mph29.5 kmh 29.37 in994.6 mb 0.00 in0.0 mm 0.00 in0.0 mm 0.04 in1.0 mm
01:30 PM 83.5°F28.6°C 52.9°F11.6°C 35% 14.5 mph S23.3 kmh S 20.6 mph33.2 kmh 29.37 in994.6 mb 0.00 in0.0 mm 0.00 in0.0 mm 0.04 in1.0 mm
01:45 PM 83.7°F28.7°C 53.1°F11.7°C 35% 10.7 mph S17.2 kmh S 17.4 mph28.0 kmh 29.36 in994.2 mb 0.00 in0.0 mm 0.00 in0.0 mm 0.04 in1.0 mm
02:00 PM 83.8°F28.8°C 54.0°F12.2°C 36% 13.6 mph SE21.9 kmh SE 22.1 mph35.6 kmh 29.37 in994.6 mb 0.00 in0.0 mm 0.00 in0.0 mm 0.04 in1.0 mm
02:15 PM 84.2°F29.0°C 52.8°F11.6°C 34% 4.5 mph S7.2 kmh S 16.8 mph27.0 kmh 29.36 in994.2 mb 0.00 in0.0 mm 0.00 in0.0 mm 0.04 in1.0 mm
02:30 PM 83.7°F28.7°C 51.5°F10.8°C 33% 6.0 mph S9.7 kmh S 19.7 mph31.7 kmh 29.36 in994.2 mb 0.00 in0.0 mm 0.00 in0.0 mm 0.04 in1.0 mm
02:45 PM 84.0°F28.9°C 51.8°F11.0°C 33% 10.7 mph SSE17.2 kmh SSE 15.9 mph25.6 kmh 29.35 in993.9 mb 0.00 in0.0 mm 0.00 in0.0 mm 0.04 in1.0 mm
03:00 PM 84.2°F29.0°C 53.6°F12.0°C 35% 14.5 mph S23.3 kmh S 20.6 mph33.2 kmh 29.35 in993.9 mb 0.00 in0.0 mm 0.00 in0.0 mm 0.04 in1.0 mm
03:15 PM 82.9°F28.3°C 54.0°F12.2°C 37% 7.6 mph S12.2 kmh S 17.4 mph28.0 kmh 29.35 in993.9 mb 0.00 in0.0 mm 0.00 in0.0 mm 0.04 in1.0 mm
03:30 PM 82.8°F28.2°C 53.1°F11.7°C 36% 8.3 mph S13.4 kmh S 17.4 mph28.0 kmh 29.34 in993.6 mb 0.00 in0.0 mm 0.00 in0.0 mm 0.04 in1.0 mm
03:45 PM 83.5°F28.6°C 52.2°F11.2°C 34% 5.4 mph ENE8.7 kmh ENE 11.4 mph18.3 kmh 29.34 in993.6 mb 0.00 in0.0 mm 0.00 in0.0 mm 0.04 in1.0 mm
04:00 PM 82.6°F28.1°C 48.9°F9.4°C 31% 3.1 mph NE5.0 kmh NE 13.6 mph21.9 kmh 29.34 in993.6 mb 0.00 in0.0 mm 0.00 in0.0 mm 0.04 in1.0 mm
04:15 PM 82.2°F27.9°C 49.4°F9.7°C 32% 3.8 mph NNW6.1 kmh NNW 15.9 mph25.6 kmh 29.34 in993.6 mb 0.00 in0.0 mm 0.00 in0.0 mm 0.04 in1.0 mm
04:30 PM 81.5°F27.5°C 49.6°F9.8°C 33% 8.3 mph SW13.4 kmh SW 13.0 mph20.9 kmh 29.34 in993.6 mb 0.00 in0.0 mm 0.00 in0.0 mm 0.04 in1.0 mm
04:45 PM 81.5°F27.5°C 48.8°F9.3°C 32% 7.6 mph SE12.2 kmh SE 15.2 mph24.5 kmh 29.33 in993.2 mb 0.00 in0.0 mm 0.00 in0.0 mm 0.04 in1.0 mm
05:00 PM 81.5°F27.5°C 51.2°F10.7°C 35% 6.9 mph S11.1 kmh S 11.4 mph18.3 kmh 29.33 in993.2 mb 0.00 in0.0 mm 0.00 in0.0 mm 0.04 in1.0 mm
05:15 PM 81.3°F27.4°C 50.3°F10.2°C 34% 4.5 mph S7.2 kmh S 14.5 mph23.3 kmh 29.33 in993.2 mb 0.00 in0.0 mm 0.00 in0.0 mm 0.04 in1.0 mm
05:30 PM 81.0°F27.2°C 49.1°F9.5°C 33% 6.9 mph SW11.1 kmh SW 16.8 mph27.0 kmh 29.33 in993.2 mb 0.00 in0.0 mm 0.00 in0.0 mm 0.04 in1.0 mm
05:45 PM 80.1°F26.7°C 48.4°F9.1°C 33% 3.1 mph NE5.0 kmh NE 9.2 mph14.8 kmh 29.34 in993.6 mb 0.00 in0.0 mm 0.00 in0.0 mm 0.04 in1.0 mm
06:00 PM 79.0°F26.1°C 48.2°F9.0°C 34% 4.5 mph WSW7.2 kmh WSW 8.3 mph13.4 kmh 29.34 in993.6 mb 0.00 in0.0 mm 0.00 in0.0 mm 0.04 in1.0 mm
06:15 PM 77.9°F25.5°C 48.8°F9.3°C 36% 3.8 mph SE6.1 kmh SE 13.0 mph20.9 kmh 29.35 in993.9 mb 0.00 in0.0 mm 0.00 in0.0 mm 0.04 in1.0 mm
06:30 PM 76.8°F24.9°C 49.3°F9.6°C 38% 3.1 mph WSW5.0 kmh WSW 10.7 mph17.2 kmh 29.35 in993.9 mb 0.00 in0.0 mm 0.00 in0.0 mm 0.04 in1.0 mm
06:45 PM 75.6°F24.2°C 48.9°F9.4°C 39% 2.2 mph SSW3.5 kmh SSW 9.2 mph14.8 kmh 29.35 in993.9 mb 0.00 in0.0 mm 0.00 in0.0 mm 0.04 in1.0 mm
07:00 PM 74.7°F23.7°C 48.7°F9.3°C 40% 4.5 mph S7.2 kmh S 9.2 mph14.8 kmh 29.35 in993.9 mb 0.00 in0.0 mm 0.00 in0.0 mm 0.04 in1.0 mm
07:15 PM 74.1°F23.4°C 48.9°F9.4°C 41% 3.8 mph S6.1 kmh S 6.9 mph11.1 kmh 29.36 in994.2 mb 0.00 in0.0 mm 0.00 in0.0 mm 0.04 in1.0 mm
07:30 PM 73.2°F22.9°C 48.1°F8.9°C 41% 2.2 mph SE3.5 kmh SE 8.3 mph13.4 kmh 29.36 in994.2 mb 0.00 in0.0 mm 0.00 in0.0 mm 0.04 in1.0 mm
07:45 PM 72.7°F22.6°C 48.3°F9.1°C 42% 4.5 mph W7.2 kmh W 9.8 mph15.8 kmh 29.37 in994.6 mb 0.00 in0.0 mm 0.00 in0.0 mm 0.04 in1.0 mm
08:00 PM 71.6°F22.0°C 50.3°F10.2°C 47% 3.1 mph NE5.0 kmh NE 6.0 mph9.7 kmh 29.37 in994.6 mb 0.00 in0.0 mm 0.00 in0.0 mm 0.04 in1.0 mm
08:15 PM 71.4°F21.9°C 50.1°F10.1°C 47% 3.1 mph ENE5.0 kmh ENE 9.2 mph14.8 kmh 29.38 in994.9 mb 0.00 in0.0 mm 0.00 in0.0 mm 0.04 in1.0 mm
08:30 PM 71.8°F22.1°C 49.9°F9.9°C 46% 6.0 mph S9.7 kmh S 17.4 mph28.0 kmh 29.39 in995.3 mb 0.00 in0.0 mm 0.00 in0.0 mm 0.04 in1.0 mm
08:45 PM 71.8°F22.1°C 51.0°F10.6°C 48% 2.2 mph SW3.5 kmh SW 9.2 mph14.8 kmh 29.39 in995.3 mb 0.00 in0.0 mm 0.00 in0.0 mm 0.04 in1.0 mm
09:00 PM 71.1°F21.7°C 51.5°F10.8°C 50% 3.1 mph SW5.0 kmh SW 4.5 mph7.2 kmh 29.40 in995.6 mb 0.00 in0.0 mm 0.00 in0.0 mm 0.04 in1.0 mm
09:15 PM 69.8°F21.0°C 50.9°F10.5°C 51% 4.5 mph WNW7.2 kmh WNW 7.6 mph12.2 kmh 29.41 in995.9 mb 0.00 in0.0 mm 0.00 in0.0 mm 0.04 in1.0 mm
09:30 PM 69.1°F20.6°C 51.2°F10.7°C 53% 4.5 mph NW7.2 kmh NW 6.9 mph11.1 kmh 29.41 in995.9 mb 0.00 in0.0 mm 0.00 in0.0 mm 0.04 in1.0 mm
09:45 PM 68.5°F20.3°C 51.2°F10.7°C 54% 2.2 mph W3.5 kmh W 6.0 mph9.7 kmh 29.43 in996.6 mb 0.00 in0.0 mm 0.00 in0.0 mm 0.04 in1.0 mm
10:00 PM 67.5°F19.7°C 51.7°F10.9°C 57% 3.1 mph SW5.0 kmh SW 4.5 mph7.2 kmh 29.43 in996.6 mb 0.00 in0.0 mm 0.00 in0.0 mm 0.04 in1.0 mm
10:15 PM 66.6°F19.2°C 51.8°F11.0°C 59% Calm Calm 3.1 mph5.0 kmh 29.44 in997.0 mb 0.00 in0.0 mm 0.00 in0.0 mm 0.04 in1.0 mm
10:30 PM 65.5°F18.6°C 51.7°F10.9°C 61% 1.6 mph SSE2.6 kmh SSE 5.4 mph8.7 kmh 29.45 in997.3 mb 0.00 in0.0 mm 0.00 in0.0 mm 0.04 in1.0 mm
10:45 PM 65.5°F18.6°C 52.1°F11.2°C 62% 3.1 mph SW5.0 kmh SW 6.9 mph11.1 kmh 29.45 in997.3 mb 0.00 in0.0 mm 0.00 in0.0 mm 0.04 in1.0 mm
11:00 PM 65.3°F18.5°C 51.9°F11.1°C 62% 3.8 mph W6.1 kmh W 5.4 mph8.7 kmh 29.46 in997.6 mb 0.00 in0.0 mm 0.00 in0.0 mm 0.04 in1.0 mm
11:15 PM 64.9°F18.3°C 52.5°F11.4°C 64% 1.6 mph S2.6 kmh S 3.8 mph6.1 kmh 29.47 in998.0 mb 0.00 in0.0 mm 0.00 in0.0 mm 0.04 in1.0 mm
11:30 PM 64.9°F18.3°C 53.3°F11.8°C 66% 6.0 mph WSW9.7 kmh WSW 7.6 mph12.2 kmh 29.47 in998.0 mb 0.00 in0.0 mm 0.00 in0.0 mm 0.04 in1.0 mm
11:45 PM 64.6°F18.1°C 54.2°F12.3°C 69% 1.6 mph NW2.6 kmh NW 8.3 mph13.4 kmh 29.47 in998.0 mb 0.00 in0.0 mm 0.00 in0.0 mm 0.04 in1.0 mm